createdAt,value
2023-04-06T00:05:36.111Z,9.2
2023-04-06T00:15:38.017Z,6.4
2023-04-06T00:25:40.169Z,6.2
2023-04-06T00:35:42.380Z,5.8
2023-04-06T00:45:44.612Z,5.1
2023-04-06T00:55:46.621Z,7.8
2023-04-06T01:05:48.745Z,11.1
2023-04-06T01:15:50.952Z,7.3
2023-04-06T01:25:52.987Z,9.8
2023-04-06T01:35:55.200Z,7.4
2023-04-06T01:45:57.172Z,6.5
2023-04-06T01:55:59.204Z,6
2023-04-06T02:06:01.143Z,8.1
2023-04-06T02:16:05.797Z,7.2
2023-04-06T02:26:05.090Z,8.3
2023-04-06T02:36:07.115Z,7.3
2023-04-06T02:46:08.918Z,7.1
2023-04-06T02:56:10.817Z,9
2023-04-06T03:06:12.736Z,8.2
2023-04-06T03:16:14.728Z,10.4
2023-04-06T03:26:16.588Z,8.9
2023-04-06T03:36:18.438Z,8.4
2023-04-06T03:46:20.404Z,10
2023-04-06T03:56:22.373Z,7.9
2023-04-06T04:06:24.370Z,8.2
2023-04-06T04:16:26.411Z,7.5
2023-04-06T04:26:28.313Z,9.1
2023-04-06T04:36:30.284Z,6.3
2023-04-06T04:46:32.198Z,7.9
2023-04-06T04:56:34.147Z,8
2023-04-06T05:06:36.500Z,7.8
2023-04-06T05:16:38.364Z,7.4
2023-04-06T05:26:40.234Z,7.4
2023-04-06T05:36:42.044Z,7.1
2023-04-06T05:46:44.005Z,6.2
2023-04-06T05:56:45.982Z,7.4
2023-04-06T06:06:47.764Z,6.4
2023-04-06T06:16:49.495Z,7.5
2023-04-06T06:26:51.175Z,6.7
2023-04-06T06:36:53.347Z,7.4
2023-04-06T06:46:55.071Z,6.3
2023-04-06T06:56:56.714Z,8.1
2023-04-06T07:06:58.630Z,9.3
2023-04-06T07:17:00.396Z,9
2023-04-06T07:27:02.173Z,10.5
2023-04-06T07:37:04.238Z,11.9
2023-04-06T07:47:05.835Z,8.8
2023-04-06T07:57:07.479Z,11.3
2023-04-06T08:07:09.265Z,9.5
2023-04-06T08:17:11.111Z,12.3
2023-04-06T08:27:12.920Z,11.2
2023-04-06T08:37:14.731Z,12.5
2023-04-06T08:47:16.507Z,12.5
2023-04-06T08:57:18.216Z,13.4
2023-04-06T09:07:20.097Z,14.8
2023-04-06T09:17:21.790Z,10.5
2023-04-06T09:27:23.671Z,17.3
2023-04-06T09:37:25.456Z,14.8
2023-04-06T09:47:29.209Z,13.2
2023-04-06T09:57:29.036Z,11.2
2023-04-06T10:07:30.643Z,13
2023-04-06T10:17:32.561Z,10.8
2023-04-06T10:27:34.155Z,13.3
2023-04-06T10:37:36.024Z,11.9
2023-04-06T10:47:37.803Z,11.9
2023-04-06T10:57:39.668Z,11.4
2023-04-06T11:07:41.179Z,12.5
2023-04-06T11:17:43.025Z,12
2023-04-06T11:27:44.821Z,12.5
2023-04-06T11:37:46.784Z,12.2
2023-04-06T11:47:48.610Z,13.6
2023-04-06T11:57:50.577Z,13.4
2023-04-06T12:07:52.484Z,14.3
2023-04-06T12:17:54.457Z,11.2
2023-04-06T12:27:56.445Z,18.3
2023-04-06T12:37:58.453Z,12.3
2023-04-06T12:48:00.489Z,9.3
2023-04-06T12:58:02.538Z,11.7
2023-04-06T13:08:04.612Z,9
2023-04-06T13:18:06.784Z,7.7
2023-04-06T13:28:08.932Z,7.8
2023-04-06T13:38:11.277Z,11.1
2023-04-06T13:48:13.539Z,8.2
2023-04-06T13:58:15.902Z,6.2
2023-04-06T14:08:18.069Z,7.6
2023-04-06T14:18:20.354Z,8
2023-04-06T14:28:22.729Z,7.5
2023-04-06T14:38:25.075Z,6.8
2023-04-06T14:48:27.369Z,8.2
2023-04-06T14:58:29.762Z,8.2
2023-04-06T15:08:32.193Z,5.9
2023-04-06T15:18:34.643Z,7.8
2023-04-06T15:28:37.116Z,7.6
2023-04-06T15:38:39.732Z,7.9
2023-04-06T15:48:42.195Z,4.7
2023-04-06T15:58:44.948Z,7.2
2023-04-06T16:08:47.718Z,6
2023-04-06T16:18:50.279Z,6.8
2023-04-06T16:28:53.077Z,5.1
2023-04-06T16:38:55.727Z,5.4
2023-04-06T16:48:58.496Z,6.3
2023-04-06T16:59:01.095Z,4.5
2023-04-06T17:09:03.816Z,5.3
2023-04-06T17:19:06.532Z,5
2023-04-06T17:29:09.348Z,5.3
2023-04-06T17:39:12.065Z,5.4
2023-04-06T17:49:14.885Z,7.4
2023-04-06T17:59:17.680Z,6.5
2023-04-06T18:09:20.499Z,6
2023-04-06T18:19:23.375Z,4.9
2023-04-06T18:29:26.321Z,5.5
2023-04-06T18:39:29.274Z,5.5
2023-04-06T18:49:32.221Z,6
2023-04-06T18:59:35.304Z,5.4
2023-04-06T19:09:38.266Z,4.6
2023-04-06T19:19:41.229Z,4.9
2023-04-06T19:29:44.276Z,6.1
2023-04-06T19:39:47.417Z,5.2
2023-04-06T19:49:50.300Z,4.5
2023-04-06T19:59:53.331Z,5.2
2023-04-06T20:09:56.427Z,5.5
2023-04-06T20:19:59.306Z,4.9
2023-04-06T20:30:02.203Z,5.6
2023-04-06T20:40:05.104Z,9.3
2023-04-06T20:50:08.048Z,7.8
2023-04-06T21:00:10.962Z,4.9
2023-04-06T21:10:14.921Z,4.8
2023-04-06T21:20:16.655Z,4.6
2023-04-06T21:30:19.664Z,5.1
2023-04-06T21:40:22.238Z,9.2
2023-04-06T21:50:25.026Z,5.8
2023-04-06T22:00:27.656Z,5.2
2023-04-06T22:10:30.400Z,5
2023-04-06T22:20:33.165Z,6.6
2023-04-06T22:30:35.802Z,7.3
2023-04-06T22:40:38.442Z,5
2023-04-06T22:50:41.044Z,6
2023-04-06T23:00:43.632Z,6.6
2023-04-06T23:10:46.224Z,5.4
2023-04-06T23:20:48.790Z,12.6
2023-04-06T23:30:51.351Z,6.6
2023-04-06T23:40:53.883Z,7.4
2023-04-06T23:50:56.325Z,7.4
